Latest Weather Observations for Moorabbin Airport

IDV60801

Issued at 8:12 am EST Saturday 24 August 2019 (issued every 10 minutes, with the page automatically refreshed every 10 minutes)

About weather observations | Map of weather stations | Latest weather observations for VIC | Other Formats
Station Details ID: 086077 Name: MOORABBIN AIRPORT Lat: -37.98 Lon: 145.10 Height: 12.1 m
Data from the previous 72 hours. | See also: Recent months at Moorabbin Airport
Date/Time
EST
Temp
°C
App
Temp
°C
Dew
Point
°C
Rel
Hum
%
Delta-T
°C
Wind Press
QNH
hPa
Press
MSL
hPa
Rain since
9am
mm
Dir  Spd
km/h
Gust
km/h
Spd
kts
Gust
kts
24/08:00am 11.5 3.7 2.0 52 4.0 N 32 41 17 22 1016.1 1016.1 0.2
24/07:30am 10.2 2.8 1.8 56 3.5 N 30 41 16 22 1016.1 1016.1 0.2
24/07:00am 9.9 2.1 1.5 56 3.5 N 32 39 17 21 1015.8 1015.8 0.2
24/06:30am 9.9 2.5 1.8 57 3.4 N 30 39 16 21 1016.1 1016.1 0.2
24/06:00am 10.0 2.9 1.6 56 3.5 N 28 39 15 21 1016.2 1016.2 0.2
24/05:30am 9.3 3.0 1.7 59 3.2 N 24 32 13 17 1016.5 1016.5 0.2
24/05:00am 9.5 3.7 2.1 60 3.1 N 22 30 12 16 1016.5 1016.5 0.2
24/04:30am 9.9 3.7 2.0 58 3.3 N 24 30 13 16 1016.7 1016.7 0.2
24/04:00am 10.0 3.8 2.1 58 3.3 N 24 35 13 19 1016.8 1016.8 0.2
24/03:30am 10.0 3.5 2.4 59 3.2 N 26 32 14 17 1016.5 1016.5 0.2
24/03:00am 9.5 2.5 2.1 60 3.1 N 28 35 15 19 1016.6 1016.6 0.2
24/02:30am 9.5 2.9 2.1 60 3.1 N 26 33 14 18 1017.4 1017.4 0.2
24/02:00am 10.2 3.7 2.6 59 3.2 N 26 39 14 21 1017.7 1017.7 0.2
24/01:30am 10.2 3.7 2.8 60 3.2 N 26 37 14 20 1017.8 1017.8 0.2
24/01:00am 9.8 4.1 3.1 63 2.9 N 22 28 12 15 1018.1 1018.1 0.2
24/12:30am 9.6 3.6 3.4 65 2.7 N 24 30 13 16 1018.3 1018.3 0.2
24/12:00am 9.6 4.0 3.6 66 2.6 N 22 30 12 16 1018.7 1018.7 0.2
 
Date/Time
EST
Temp
°C
App
Temp
°C
Dew
Point
°C
Rel
Hum
%
Delta-T
°C
Wind Press
QNH
hPa
Press
MSL
hPa
Rain since
9am
mm
Dir  Spd
km/h
Gust
km/h
Spd
kts
Gust
kts
23/11:30pm 9.7 5.5 3.7 66 2.6 N 15 20 8 11 1018.9 1018.9 0.2
23/11:00pm 10.2 4.6 3.7 64 2.8 N 22 30 12 16 1018.9 1018.9 0.2
23/10:30pm 10.6 5.1 3.9 63 3.0 N 22 30 12 16 1019.5 1019.5 0.2
23/10:00pm 10.8 4.9 3.8 62 3.1 N 24 37 13 20 1019.7 1019.7 0.2
23/09:30pm 11.1 5.1 3.6 60 3.3 NNW 24 33 13 18 1020.1 1020.1 0.2
23/09:00pm 11.3 5.0 3.6 59 3.4 N 26 37 14 20 1020.5 1020.6 0.2
23/08:30pm 11.4 5.5 3.9 60 3.3 NNW 24 32 13 17 1020.5 1020.6 0.2
23/08:00pm 11.6 6.5 4.3 61 3.3 NNW 20 33 11 18 1020.5 1020.6 0.2
23/07:30pm 12.0 6.2 4.2 59 3.5 N 24 35 13 19 1020.3 1020.4 0.2
23/07:00pm 12.3 5.3 4.0 57 3.7 N 30 46 16 25 1020.2 1020.3 0.2
23/06:30pm 12.6 4.5 3.3 53 4.1 N 35 54 19 29 1020.0 1020.0 0.2
23/06:00pm 13.0 4.9 3.1 51 4.4 N 35 54 19 29 1019.7 1019.7 0.2
23/05:36pm 13.1 4.6 3.2 51 4.4 N 37 56 20 30 1019.9 1019.9 0.2
23/05:30pm 13.2 3.9 3.0 50 4.5 N 41 56 22 30 1019.7 1019.7 0.2
23/05:21pm 13.3 4.8 3.1 50 4.5 N 37 56 20 30 1019.7 1019.7 0.2
23/05:00pm 13.8 4.8 2.7 47 4.9 NNW 39 56 21 30 1019.5 1019.5 0.2
23/04:55pm 14.0 5.5 2.9 47 4.9 N 37 56 20 30 1019.5 1019.5 0.2
23/04:30pm 14.6 6.7 2.2 43 5.5 NNW 33 50 18 27 1019.5 1019.5 0.2
23/04:26pm 14.7 7.0 2.3 43 5.5 NNW 32 50 17 27 1019.4 1019.4 0.2
23/04:00pm 15.2 7.2 1.4 39 6.0 NNW 33 46 18 25 1019.6 1019.6 0.2
23/03:30pm 15.3 7.3 1.4 39 6.1 NNW 33 48 18 26 1019.6 1019.6 0.2
23/03:00pm 15.2 7.0 0.2 36 6.4 NNW 33 48 18 26 1019.6 1019.6 0.2
23/02:45pm 15.7 7.4 2.2 40 6.0 N 35 54 19 29 1019.7 1019.7 0.2
23/02:30pm 15.4 7.8 2.6 42 5.7 NNW 32 43 17 23 1019.9 1019.9 0.2
23/02:00pm 14.5 7.0 3.3 47 5.0 N 32 41 17 22 1020.6 1020.7 0.2
23/01:30pm 14.7 8.0 3.8 48 5.0 N 28 37 15 20 1021.3 1021.4 0.2
23/01:00pm 14.3 8.3 3.2 47 5.0 NNW 24 32 13 17 1022.0 1022.1 0.2
23/12:30pm 13.5 9.8 4.6 55 4.1 WNW 13 26 7 14 1022.9 1023.0 0.0
23/12:00pm 12.4 8.4 5.1 61 3.3 NW 15 22 8 12 1023.5 1023.6 0.0
23/11:30am 11.6 7.4 3.9 59 3.4 NNW 15 20 8 11 1024.2 1024.3 0.0
23/11:00am 10.9 6.3 3.9 62 3.1 NW 17 24 9 13 1024.9 1025.0 0.0
23/10:30am 10.7 6.2 4.2 64 2.9 NW 17 22 9 12 1025.1 1025.2 0.0
23/10:00am 10.0 6.2 4.0 66 2.6 NW 13 20 7 11 1025.4 1025.5 0.0
23/09:30am 9.0 5.2 3.8 70 2.3 NNW 13 19 7 10 1025.7 1025.8 0.0
23/09:00am 8.0 4.2 3.7 74 1.8 NNW 13 17 7 9 1025.8 1025.9 0.0
23/08:30am 7.2 3.8 4.0 80 1.4 N 11 17 6 9 1025.9 1026.0 0.0
23/08:00am 5.9 2.9 4.1 88 0.8 N 9 11 5 6 1025.8 1025.9 0.0
23/07:30am 4.4 0.8 2.8 89 0.6 N 11 15 6 8 1025.7 1025.8 0.0
23/07:00am 3.7 0.3 1.9 88 0.7 N 9 9 5 5 1025.6 1025.7 0.0
23/06:30am 4.1 0.8 2.3 88 0.7 N 9 11 5 6 1025.5 1025.6 0.0
23/06:00am 4.5 1.6 2.7 88 0.7 NNW 7 9 4 5 1025.4 1025.5 0.0
23/05:30am 4.5 1.2 2.5 87 0.8 N 9 11 5 6 1025.1 1025.2 0.0
23/05:00am 4.8 1.5 2.7 86 0.8 N 9 11 5 6 1025.2 1025.3 0.0
23/04:30am 5.4 2.6 3.3 86 0.9 N 7 9 4 5 1025.1 1025.2 0.0
23/04:00am 6.2 3.2 4.0 86 0.9 NNW 9 11 5 6 1025.1 1025.2 0.0
23/03:30am 6.7 3.8 4.5 86 1.0 N 9 11 5 6 1025.2 1025.3 0.0
23/03:00am 7.3 4.9 5.1 86 1.0 N 7 9 4 5 1025.5 1025.6 0.0
23/02:30am 8.0 5.3 5.5 84 1.1 N 9 11 5 6 1025.7 1025.8 0.0
23/02:00am 8.3 5.9 5.4 82 1.3 WNW 7 9 4 5 1026.0 1026.1 0.0
23/01:30am 8.9 6.6 5.6 80 1.5 WNW 7 9 4 5 1026.2 1026.3 0.0
23/01:00am 9.2 7.5 5.8 79 1.5 WNW 4 9 2 5 1026.4 1026.5 0.0
23/12:30am 9.2 6.6 6.3 82 1.3 WNW 9 13 5 7 1026.5 1026.6 0.0
23/12:00am 9.0 7.0 6.3 83 1.2 NNW 6 9 3 5 1026.5 1026.6 0.0
 
Date/Time
EST
Temp
°C
App
Temp
°C
Dew
Point
°C
Rel
Hum
%
Delta-T
°C
Wind Press
QNH
hPa
Press
MSL
hPa
Rain since
9am
mm
Dir  Spd
km/h
Gust
km/h
Spd
kts
Gust
kts
22/11:30pm 8.0 6.6 5.3 83 1.2 N 2 7 1 4 1026.4 1026.5 0.0
22/11:00pm 7.9 6.5 5.4 84 1.1 N 2 7 1 4 1026.5 1026.6 0.0
22/10:30pm 7.0 4.7 4.7 85 1.0 NNE 6 7 3 4 1026.7 1026.8 0.0
22/10:00pm 6.6 4.1 3.9 83 1.1 N 6 9 3 5 1026.9 1027.0 0.0
22/09:30pm 6.6 5.2 3.6 81 1.3 CALM 0 0 0 0 1026.7 1026.8 0.0
22/09:00pm 7.2 5.0 3.3 76 1.6 NNE 4 7 2 4 1026.7 1026.8 0.0
22/08:30pm 8.2 5.4 3.3 71 2.1 S 7 9 4 5 1026.6 1026.7 0.0
22/08:00pm 8.9 6.2 3.9 71 2.2 SSE 7 11 4 6 1026.4 1026.5 0.0
22/07:30pm 9.3 6.3 4.1 70 2.3 SSW 9 13 5 7 1026.3 1026.4 0.0
22/07:00pm 9.9 6.6 4.3 68 2.5 S 11 17 6 9 1026.0 1026.1 0.0
22/06:30pm 9.9 6.6 4.3 68 2.5 SSW 11 17 6 9 1026.0 1026.1 0.0
22/06:00pm 10.1 6.0 4.5 68 2.5 SW 15 20 8 11 1025.7 1025.8 0.0
22/05:30pm 10.5 6.1 4.6 67 2.6 SW 17 26 9 14 1025.5 1025.6 0.0
22/05:00pm 10.8 6.0 4.5 65 2.8 SW 19 28 10 15 1025.3 1025.4 0.0
22/04:30pm 11.7 6.3 4.7 62 3.2 SW 22 32 12 17 1025.0 1025.1 0.0
22/04:00pm 11.9 6.7 5.3 64 3.0 SW 22 32 12 17 1024.8 1024.9 0.0
22/03:30pm 11.9 6.5 6.2 68 2.7 SW 24 35 13 19 1024.5 1024.6 0.0
22/03:00pm 12.2 6.9 4.9 61 3.3 SW 22 33 12 18 1024.3 1024.4 0.0
22/02:30pm 12.4 7.2 5.3 62 3.3 SW 22 32 12 17 1024.1 1024.2 0.0
22/02:00pm 11.6 6.0 5.5 66 2.8 SW 24 32 13 17 1024.1 1024.2 0.0
22/01:30pm 12.4 6.3 4.6 59 3.6 SSW 26 39 14 21 1023.9 1024.0 0.0
22/01:00pm 12.1 6.8 5.0 62 3.2 SSW 22 32 12 17 1024.1 1024.2 0.0
22/12:30pm 11.9 5.2 5.5 65 3.0 SSW 30 43 16 23 1024.2 1024.3 0.0
22/12:00pm 11.0 6.1 6.7 75 2.0 SSW 22 35 12 19 1024.2 1024.3 0.0
22/11:34am 11.7 5.3 5.3 65 2.9 SW 28 57 15 31 1024.0 1024.1 0.0
22/11:30am 12.6 6.8 6.4 66 2.9 SSW 26 35 14 19 1023.9 1024.0 0.0
22/11:00am 11.1 6.7 7.4 78 1.8 SW 20 32 11 17 1024.0 1024.1 0.0
22/10:30am 11.3 4.6 5.4 67 2.7 SSW 30 48 16 26 1023.5 1023.6 0.0
22/10:22am 12.1 5.6 4.8 61 3.3 SSW 28 48 15 26 1023.4 1023.5 0.0
22/10:00am 11.9 5.8 4.6 61 3.3 SSW 26 35 14 19 1023.1 1023.2 0.0
22/09:30am 11.6 5.1 4.8 63 3.1 SSW 28 41 15 22 1022.8 1022.9 0.0
22/09:00am 11.2 5.4 4.4 63 3.0 SW 24 35 13 19 1022.3 1022.4 6.4
22/08:30am 10.8 4.3 4.5 65 2.8 SW 28 41 15 22 1022.1 1022.2 6.4
22/08:15am 11.2 4.6 4.4 63 3.1 SW 28 46 15 25 1021.8 1021.9 6.4
22/08:00am 10.7 4.0 3.5 61 3.1 SW 28 39 15 21 1021.7 1021.8 6.4
22/07:30am 10.6 3.5 3.6 62 3.1 SW 30 44 16 24 1021.3 1021.4 6.4
22/07:00am 10.4 3.9 4.5 67 2.6 SSW 28 39 15 21 1020.9 1021.0 6.4
22/06:30am 10.6 5.5 5.8 72 2.2 SSW 22 33 12 18 1020.5 1020.6 6.4
22/06:00am 10.6 6.2 7.5 81 1.5 SW 20 33 11 18 1020.2 1020.3 6.4
22/05:36am 9.9 5.6 8.0 88 0.9 SW 20 28 11 15 1019.7 1019.7 6.4
22/05:30am 9.9 4.8 7.8 87 1.0 SW 24 39 13 21 1019.7 1019.7 6.4
22/05:19am 10.1 4.3 7.9 86 1.1 SW 28 48 15 26 1019.7 1019.7 6.4
22/05:14am 10.3 5.6 7.9 85 1.2 WSW 22 35 12 19 1019.5 1019.5 5.8
22/05:00am 10.5 5.5 8.1 85 1.2 WSW 24 32 13 17 1019.1 1019.1 5.0
22/04:57am 10.6 5.3 8.4 86 1.1 SW 26 32 14 17 1019.2 1019.2 5.0
22/04:41am 10.2 4.3 7.6 84 1.2 SW 28 46 15 25 1019.1 1019.1 5.0
22/04:30am 10.4 4.8 7.3 81 1.5 SW 26 43 14 23 1018.8 1018.8 4.2
22/04:29am 10.4 4.4 7.1 80 1.6 SW 28 43 15 23 1018.8 1018.8 4.2
22/04:00am 11.4 6.3 7.5 77 1.9 SW 24 39 13 21 1018.5 1018.5 3.8
22/03:30am 11.4 6.2 7.3 76 2.0 WSW 24 43 13 23 1018.1 1018.1 3.8
22/03:00am 11.6 5.3 7.5 76 2.0 WSW 30 48 16 26 1018.0 1018.0 3.8
22/02:55am 11.7 5.9 8.0 78 1.8 WSW 28 48 15 26 1018.0 1018.0 3.8
22/02:30am 11.4 6.3 9.3 87 1.1 WSW 26 35 14 19 1017.8 1017.8 3.8
22/02:00am 11.0 6.5 9.9 93 0.6 WSW 24 37 13 20 1017.8 1017.8 3.6
22/01:47am 10.8 6.2 9.7 93 0.6 WSW 24 35 13 19 1017.8 1017.8 3.6
22/01:30am 10.7 4.9 9.6 93 0.6 WSW 30 43 16 23 1017.8 1017.8 3.6
22/01:12am 11.0 6.8 9.6 91 0.7 WSW 22 37 12 20 1017.8 1017.8 3.2
22/01:00am 11.4 6.5 9.8 90 0.8 W 26 37 14 20 1017.2 1017.2 0.8
22/12:30am 11.7 8.0 10.1 90 0.8 W 20 33 11 18 1017.0 1017.0 0.6
22/12:18am 11.5 7.7 9.9 90 0.8 W 20 33 11 18 1016.8 1016.8 0.6
22/12:00am 11.3 6.3 9.4 88 1.0 W 26 41 14 22 1016.8 1016.8 0.6
 
Date/Time
EST
Temp
°C
App
Temp
°C
Dew
Point
°C
Rel
Hum
%
Delta-T
°C
Wind Press
QNH
hPa
Press
MSL
hPa
Rain since
9am
mm
Dir  Spd
km/h
Gust
km/h
Spd
kts
Gust
kts
21/11:37pm 11.8 5.8 8.6 81 1.6 WNW 30 50 16 27 1016.2 1016.2 0.2
21/11:34pm 12.1 6.1 8.8 80 1.6 WNW 30 50 16 27 1016.1 1016.1 0.0
21/11:30pm 12.3 6.0 8.8 79 1.7 WNW 32 46 17 25 1016.1 1016.1 0.0
21/11:08pm 12.2 6.3 8.9 80 1.6 WNW 30 48 16 26 1016.0 1016.0 0.0
21/11:00pm 12.3 6.0 8.8 79 1.7 WNW 32 44 17 24 1016.1 1016.1 0.0
21/10:31pm 12.1 6.5 8.8 80 1.6 WNW 28 46 15 25 1016.3 1016.3 0.0
21/10:30pm 12.1 6.5 8.8 80 1.6 WNW 28 43 15 23 1016.4 1016.4 0.0
21/10:20pm 12.2 5.9 8.9 80 1.6 WNW 32 56 17 30 1016.4 1016.4 0.0
21/10:01pm 11.9 5.7 8.0 77 1.9 WNW 30 54 16 29 1016.7 1016.7 0.0
21/10:00pm 12.1 5.6 8.0 76 2.0 WNW 32 54 17 29 1016.7 1016.7 0.0
21/09:30pm 12.8 6.7 8.1 73 2.3 WNW 30 48 16 26 1016.7 1016.7 0.0
21/09:22pm 12.9 6.8 8.2 73 2.3 WNW 30 48 16 26 1016.5 1016.5 0.0
21/09:00pm 12.8 7.5 8.3 74 2.2 WNW 26 44 14 24 1016.8 1016.8 0.0
21/08:30pm 12.6 6.0 7.9 73 2.3 WNW 32 50 17 27 1016.9 1016.9 0.0
21/08:05pm 13.1 7.3 8.0 71 2.5 WNW 28 50 15 27 1017.3 1017.3 0.0
21/08:00pm 13.1 7.7 8.0 71 2.5 WNW 26 41 14 22 1017.6 1017.6 0.0
21/07:30pm 12.8 7.6 7.3 69 2.7 WNW 24 35 13 19 1017.2 1017.2 0.0
21/07:00pm 12.8 7.6 7.3 69 2.7 WNW 24 35 13 19 1017.3 1017.3 0.0
21/06:30pm 12.9 7.6 6.9 67 2.9 WNW 24 44 13 24 1017.7 1017.7 0.0
21/06:00pm 13.0 7.7 7.0 67 2.9 W 24 37 13 20 1018.0 1018.0 0.0
21/05:30pm 13.1 7.4 6.9 66 3.0 W 26 37 14 20 1017.7 1017.7 0.0
21/05:00pm 13.3 8.0 6.9 65 3.1 W 24 35 13 19 1017.6 1017.6 0.0
21/04:30pm 13.7 7.7 7.2 65 3.2 W 28 44 15 24 1017.9 1017.9 0.0
21/04:00pm 14.1 8.8 6.7 61 3.6 W 24 37 13 20 1017.9 1017.9 0.0
21/03:30pm 14.6 8.0 6.2 57 4.0 W 30 43 16 23 1018.1 1018.1 0.0
21/03:09pm 15.0 8.8 6.3 56 4.2 W 28 46 15 25 1017.6 1017.6 0.0
21/03:00pm 14.7 8.7 7.0 60 3.8 W 28 43 15 23 1017.9 1017.9 0.0
21/02:44pm 14.8 8.7 6.4 57 4.1 W 28 46 15 25 1018.4 1018.4 0.0
21/02:30pm 15.0 8.5 6.3 56 4.2 W 30 46 16 25 1018.0 1018.0 0.0
21/02:02pm 15.0 8.8 6.3 56 4.2 W 28 46 15 25 1018.0 1018.0 0.0
21/02:00pm 15.1 9.0 6.7 57 4.1 W 28 41 15 22 1018.1 1018.1 0.0
21/01:30pm 15.2 9.3 7.7 61 3.7 W 28 43 15 23 1018.5 1018.5 0.0
21/01:00pm 15.3 9.7 7.3 59 3.9 W 26 39 14 21 1018.7 1018.7 0.0
21/12:30pm 15.3 10.6 7.8 61 3.7 W 22 37 12 20 1019.1 1019.1 0.0
21/12:00pm 14.6 9.1 7.6 63 3.5 W 26 39 14 21 1019.6 1019.6 0.0
21/11:30am 14.0 8.7 8.4 69 2.8 W 26 44 14 24 1019.6 1019.6 0.0
21/11:00am 13.9 8.7 8.9 72 2.5 W 26 39 14 21 1019.7 1019.7 0.0
21/10:30am 13.9 9.1 8.9 72 2.5 WNW 24 39 13 21 1019.3 1019.3 0.0
21/10:00am 13.2 8.1 9.1 76 2.1 W 26 37 14 20 1019.4 1019.4 0.0
21/09:30am 13.0 8.4 9.6 80 1.7 WNW 24 33 13 18 1019.5 1019.5 0.0
21/09:00am 12.5 8.3 9.7 83 1.4 WNW 22 32 12 17 1019.4 1019.4 0.4
21/08:30am 12.1 7.1 9.5 84 1.3 WNW 26 39 14 21 1019.1 1019.1 0.4

Other formats

Comma delimited format used in spreadsheet applications
http://www.bom.gov.au/fwo/IDV60801/IDV60801.94870.axf

JavaScript Object Notation format (JSON) in row-major order
http://www.bom.gov.au/fwo/IDV60801/IDV60801.94870.json

Data quality

Most of these data are generated automatically and are frequently updated. Quality checks on data are not normally performed. It is possible for incorrect values to appear. Refer to information at About Latest Weather Observations and please check the disclaimer before using these data.